Texas City — WDD4983 — position and weather

sailwx.info

Track history (hours):
 
Tides and Currents Weather Stations Pressure Air Temp Water Temp Dewpoint Dewpoint Depression Visibility Wind Speed Wind Dir Waves Ship Positions

Texas City

Owner: Marathon Petroleum Company LP, Findlay, OH. More information available from US FCC via Universal Licensing System and Coast Guard Vessel Documentation Center.

Last reported at 2016-Dec-05 16:32 UTC. Time now 2016-Dec-05 16:36 UTC.
Position N 29°22' W 094°53'.

Length 28 m; draft 3 m.

Type: Tug. MMSI: 367135470.

Date/timePositionNaut miles runAvg speedWind from/ knotsBaromVisibWave heightAir tempDewpointWater temp
2016-Dec-05 16:32N 29°22' W 094°53'  
2016-Nov-30 07:10N 29°24' W 094°45'  
2016-Nov-27 19:28N 29°31' W 094°53'6 6.2
2016-Nov-27 18:33N 29°35' W 094°56'6 6.4
2016-Nov-27 17:33N 29°41' W 094°59'6 5.8
2016-Nov-27 16:31N 29°46' W 095°04'9 4.2
2016-Nov-27 14:29N 29°44' W 095°14'0 0.0
2016-Nov-27 11:28N 29°44' W 095°14'0 0.0
2016-Nov-27 10:32N 29°44' W 095°14'0 0.0
2016-Nov-27 09:31N 29°44' W 095°14'0 0.0
2016-Nov-27 08:30N 29°44' W 095°14'0 0.0
2016-Nov-27 07:33N 29°44' W 095°14'0 0.0
2016-Nov-27 06:30N 29°44' W 095°14'0 0.0
2016-Nov-26 22:28N 29°44' W 095°14'0 0.0
2016-Nov-26 20:28N 29°44' W 095°14'0 0.0
2016-Nov-26 19:16N 29°44' W 095°14'6 2.0
2016-Nov-26 16:24N 29°44' W 095°07'4 4.2
2016-Nov-26 15:28N 29°47' W 095°04'1 0.6
2016-Nov-26 14:33N 29°47' W 095°04'2 0.2
2016-Nov-26 00:33N 29°46' W 095°06'0 0.0
2016-Nov-25 12:24N 29°46' W 095°06'0 0.0
2016-Nov-25 11:28N 29°46' W 095°06'0 0.0
2016-Nov-25 10:10N 29°46' W 095°06'0 0.0
2016-Nov-25 09:33N 29°46' W 095°06'0 0.0
2016-Nov-25 08:33N 29°46' W 095°06'0 0.0
2016-Nov-25 07:33N 29°46' W 095°06'0 0.0
2016-Nov-25 04:10N 29°46' W 095°06'0 0.0
2016-Nov-24 08:09N 29°46' W 095°06'0 0.0
2016-Nov-24 01:32N 29°46' W 095°06'0 0.0
2016-Nov-24 00:17N 29°46' W 095°06'0 0.0
2016-Nov-23 23:24N 29°46' W 095°06'0 0.0
2016-Nov-23 16:14N 29°46' W 095°06'0 0.0
2016-Nov-23 13:15N 29°46' W 095°06'0 0.0
2016-Nov-23 11:24N 29°46' W 095°06'0 0.0
2016-Nov-23 10:33N 29°46' W 095°06'0 0.0
2016-Nov-23 09:12N 29°46' W 095°06'0 0.0
2016-Nov-23 08:20N 29°46' W 095°06'0 0.0
2016-Nov-23 07:30N 29°46' W 095°06'0 0.0
2016-Nov-23 06:26N 29°46' W 095°06'2 0.1
2016-Nov-22 13:09N 29°47' W 095°04'0 0.1
2016-Nov-22 10:20N 29°47' W 095°04'2 2.0
2016-Nov-22 09:32N 29°46' W 095°04'6 4.5
2016-Nov-22 08:10N 29°41' W 094°59'4 5.5
2016-Nov-22 07:31N 29°38' W 094°58'  
Track history (hours):
 
Tides and Currents Weather Stations Pressure Air Temp Water Temp Dewpoint Dewpoint Depression Visibility Wind Speed Wind Dir Waves Ship Positions

Texas City

Owner: Marathon Petroleum Company LP, Findlay, OH. More information available from US FCC via Universal Licensing System and Coast Guard Vessel Documentation Center.

Last reported at 2016-Dec-05 16:32 UTC. Time now 2016-Dec-05 16:36 UTC.
Position N 29°22' W 094°53'.

Length 28 m; draft 3 m.

Type: Tug. MMSI: 367135470.

Date/timePositionNaut miles runAvg speedWind from/ knotsBaromVisibWave heightAir tempDewpointWater temp
2016-Dec-05 16:32N 29°22' W 094°53'  
2016-Nov-30 07:10N 29°24' W 094°45'  
2016-Nov-27 19:28N 29°31' W 094°53'6 6.2
2016-Nov-27 18:33N 29°35' W 094°56'6 6.4
2016-Nov-27 17:33N 29°41' W 094°59'6 5.8
2016-Nov-27 16:31N 29°46' W 095°04'9 4.2
2016-Nov-27 14:29N 29°44' W 095°14'0 0.0
2016-Nov-27 11:28N 29°44' W 095°14'0 0.0
2016-Nov-27 10:32N 29°44' W 095°14'0 0.0
2016-Nov-27 09:31N 29°44' W 095°14'0 0.0
2016-Nov-27 08:30N 29°44' W 095°14'0 0.0
2016-Nov-27 07:33N 29°44' W 095°14'0 0.0
2016-Nov-27 06:30N 29°44' W 095°14'0 0.0
2016-Nov-26 22:28N 29°44' W 095°14'0 0.0
2016-Nov-26 20:28N 29°44' W 095°14'0 0.0
2016-Nov-26 19:16N 29°44' W 095°14'6 2.0
2016-Nov-26 16:24N 29°44' W 095°07'4 4.2
2016-Nov-26 15:28N 29°47' W 095°04'1 0.6
2016-Nov-26 14:33N 29°47' W 095°04'2 0.2
2016-Nov-26 00:33N 29°46' W 095°06'0 0.0
2016-Nov-25 12:24N 29°46' W 095°06'0 0.0
2016-Nov-25 11:28N 29°46' W 095°06'0 0.0
2016-Nov-25 10:10N 29°46' W 095°06'0 0.0
2016-Nov-25 09:33N 29°46' W 095°06'0 0.0
2016-Nov-25 08:33N 29°46' W 095°06'0 0.0
2016-Nov-25 07:33N 29°46' W 095°06'0 0.0
2016-Nov-25 04:10N 29°46' W 095°06'0 0.0
2016-Nov-24 08:09N 29°46' W 095°06'0 0.0
2016-Nov-24 01:32N 29°46' W 095°06'0 0.0
2016-Nov-24 00:17N 29°46' W 095°06'0 0.0
2016-Nov-23 23:24N 29°46' W 095°06'0 0.0
2016-Nov-23 16:14N 29°46' W 095°06'0 0.0
2016-Nov-23 13:15N 29°46' W 095°06'0 0.0
2016-Nov-23 11:24N 29°46' W 095°06'0 0.0
2016-Nov-23 10:33N 29°46' W 095°06'0 0.0
2016-Nov-23 09:12N 29°46' W 095°06'0 0.0
2016-Nov-23 08:20N 29°46' W 095°06'0 0.0
2016-Nov-23 07:30N 29°46' W 095°06'0 0.0
2016-Nov-23 06:26N 29°46' W 095°06'2 0.1
2016-Nov-22 13:09N 29°47' W 095°04'0 0.1
2016-Nov-22 10:20N 29°47' W 095°04'2 2.0
2016-Nov-22 09:32N 29°46' W 095°04'6 4.5
2016-Nov-22 08:10N 29°41' W 094°59'4 5.5
2016-Nov-22 07:31N 29°38' W 094°58'  

Dump ship's entire track history